createdAt,value
2018-09-10T00:01:26.931Z,9.10
2018-09-10T00:03:55.599Z,9.97
2018-09-10T00:06:24.577Z,9.90
2018-09-10T00:08:53.654Z,10.10
2018-09-10T00:11:22.700Z,10.13
2018-09-10T00:13:51.601Z,9.03
2018-09-10T00:16:20.371Z,9.37
2018-09-10T00:18:49.035Z,10.27
2018-09-10T00:21:17.635Z,9.90
2018-09-10T00:23:46.476Z,10.20
2018-09-10T00:26:15.230Z,9.63
2018-09-10T00:28:44.203Z,10.47
2018-09-10T00:31:13.036Z,10.50
2018-09-10T00:33:41.881Z,11.07
2018-09-10T00:36:10.515Z,10.40
2018-09-10T00:38:39.378Z,11.03
2018-09-10T00:41:08.037Z,11.53
2018-09-10T00:43:36.944Z,11.67
2018-09-10T00:46:05.596Z,10.23
2018-09-10T00:48:34.636Z,12.90
2018-09-10T00:51:03.614Z,11.40
2018-09-10T00:53:32.453Z,11.80
2018-09-10T00:56:01.446Z,11.77
2018-09-10T00:58:30.508Z,12.10
2018-09-10T01:00:59.341Z,11.43
2018-09-10T01:03:28.010Z,11.80
2018-09-10T01:05:56.859Z,12.67
2018-09-10T01:08:25.789Z,12.33
2018-09-10T01:10:54.763Z,12.70
2018-09-10T01:13:23.381Z,13.20
2018-09-10T01:15:52.547Z,13.17
2018-09-10T01:18:21.326Z,13.73
2018-09-10T01:20:50.011Z,12.70
2018-09-10T01:23:18.971Z,12.43
2018-09-10T01:25:48.005Z,12.97
2018-09-10T01:28:16.982Z,11.67
2018-09-10T01:30:45.894Z,13.53
2018-09-10T01:33:19.719Z,13.40
2018-09-10T01:35:48.553Z,11.97
2018-09-10T01:38:17.262Z,13.10
2018-09-10T01:40:46.079Z,13.30
2018-09-10T01:43:15.003Z,13.77
2018-09-10T01:45:43.677Z,13.30
2018-09-10T01:48:12.481Z,12.47
2018-09-10T01:50:41.438Z,14.07
2018-09-10T01:53:10.202Z,14.03
2018-09-10T01:55:38.887Z,14.07
2018-09-10T01:58:07.527Z,14.67
2018-09-10T02:00:36.329Z,14.63
2018-09-10T02:03:05.453Z,14.77
2018-09-10T02:05:34.383Z,15.90
2018-09-10T02:08:03.170Z,15.63
2018-09-10T02:10:32.024Z,17.33
2018-09-10T02:13:00.643Z,16.47
2018-09-10T02:15:29.507Z,15.90
2018-09-10T02:17:58.204Z,16.43
2018-09-10T02:20:26.933Z,16.37
2018-09-10T02:22:55.706Z,17.07
2018-09-10T02:25:30.842Z,16.10
2018-09-10T02:27:59.654Z,16.63
2018-09-10T02:30:28.705Z,17.13
2018-09-10T02:32:57.514Z,15.97
2018-09-10T02:35:26.308Z,15.93
2018-09-10T02:37:55.199Z,16.33
2018-09-10T02:40:23.880Z,18.23
2018-09-10T02:42:52.806Z,19.57
2018-09-10T02:45:21.513Z,19.50
2018-09-10T02:47:50.525Z,17.50
2018-09-10T02:50:19.245Z,17.70
2018-09-10T02:52:48.225Z,18.00
2018-09-10T02:55:17.442Z,18.20
2018-09-10T02:57:46.171Z,16.60
2018-09-10T03:00:14.987Z,15.23
2018-09-10T03:02:43.927Z,16.80
2018-09-10T03:05:12.684Z,15.43
2018-09-10T03:07:41.505Z,15.97
2018-09-10T03:10:10.342Z,15.23
2018-09-10T03:12:39.030Z,14.37
2018-09-10T03:15:07.716Z,14.80
2018-09-10T03:17:36.459Z,14.87
2018-09-10T03:20:05.650Z,15.20
2018-09-10T03:22:34.423Z,13.03
2018-09-10T03:25:03.464Z,14.77
2018-09-10T03:27:32.167Z,14.50
2018-09-10T03:30:00.860Z,13.77
2018-09-10T03:32:29.909Z,13.80
2018-09-10T03:34:58.900Z,13.93
2018-09-10T03:37:27.688Z,13.50
2018-09-10T03:39:56.506Z,13.23
2018-09-10T03:42:25.219Z,13.80
2018-09-10T03:44:54.122Z,12.60
2018-09-10T03:47:23.069Z,13.43
2018-09-10T03:49:51.654Z,14.03
2018-09-10T03:52:20.354Z,12.53
2018-09-10T03:54:48.975Z,13.80
2018-09-10T03:57:18.154Z,14.13
2018-09-10T03:59:47.042Z,14.13
2018-09-10T04:02:15.992Z,14.27
2018-09-10T04:04:44.874Z,13.90
2018-09-10T04:07:13.768Z,14.40
2018-09-10T04:09:42.517Z,13.80
2018-09-10T04:12:11.391Z,14.20
2018-09-10T04:14:40.461Z,13.87
2018-09-10T04:17:09.461Z,14.07
2018-09-10T04:19:38.524Z,14.23
2018-09-10T04:22:07.585Z,14.27
2018-09-10T04:24:36.472Z,13.43
2018-09-10T04:27:05.389Z,14.50
2018-09-10T04:29:34.304Z,14.40
2018-09-10T04:32:03.052Z,13.90
2018-09-10T04:34:31.799Z,13.93
2018-09-10T04:37:00.527Z,13.80
2018-09-10T04:39:29.458Z,13.87
2018-09-10T04:41:58.473Z,14.43
2018-09-10T04:44:27.179Z,13.70
2018-09-10T04:46:55.957Z,14.67
2018-09-10T04:49:24.611Z,14.43
2018-09-10T04:51:53.539Z,14.57
2018-09-10T04:54:22.328Z,14.23
2018-09-10T04:56:51.238Z,14.47
2018-09-10T04:59:20.451Z,13.87
2018-09-10T05:01:49.184Z,13.27
2018-09-10T05:04:17.823Z,13.70
2018-09-10T05:06:46.735Z,13.77
2018-09-10T05:09:16.079Z,14.00
2018-09-10T05:11:44.942Z,15.50
2018-09-10T05:14:13.624Z,17.53
2018-09-10T05:16:42.825Z,18.73
2018-09-10T05:19:11.525Z,20.20
2018-09-10T05:21:40.361Z,15.90
2018-09-10T05:24:09.059Z,18.13
2018-09-10T05:26:37.925Z,16.47
2018-09-10T05:29:06.833Z,18.00
2018-09-10T05:31:35.597Z,17.07
2018-09-10T05:34:04.449Z,17.70
2018-09-10T05:36:33.062Z,17.30
2018-09-10T05:39:01.995Z,17.20
2018-09-10T05:41:30.729Z,17.03
2018-09-10T05:43:59.554Z,15.77
2018-09-10T05:46:28.307Z,15.47
2018-09-10T05:48:57.153Z,14.27
2018-09-10T05:51:26.219Z,12.87
2018-09-10T05:53:55.141Z,12.93
2018-09-10T05:56:24.040Z,13.57
2018-09-10T05:58:52.787Z,12.47
2018-09-10T06:01:21.572Z,12.30
2018-09-10T06:03:50.704Z,13.00
2018-09-10T06:06:19.388Z,12.63
2018-09-10T06:08:48.446Z,12.47
2018-09-10T06:11:17.413Z,12.57
2018-09-10T06:13:46.578Z,12.17
2018-09-10T06:16:15.423Z,12.20
2018-09-10T06:18:44.252Z,12.23
2018-09-10T06:21:13.092Z,12.50
2018-09-10T06:23:41.821Z,11.53
2018-09-10T06:26:10.729Z,11.67
2018-09-10T06:28:39.897Z,10.90
2018-09-10T06:31:08.851Z,11.13
2018-09-10T06:33:37.559Z,10.50
2018-09-10T06:36:06.540Z,9.93
2018-09-10T06:38:35.268Z,9.67
2018-09-10T06:41:04.019Z,9.67
2018-09-10T06:43:32.870Z,9.03
2018-09-10T06:46:01.740Z,9.23
2018-09-10T06:48:35.147Z,9.23
2018-09-10T06:51:05.739Z,8.53
2018-09-10T06:53:34.889Z,8.10
2018-09-10T06:56:04.911Z,8.30
2018-09-10T06:58:34.449Z,8.70
2018-09-10T07:01:03.362Z,7.97
2018-09-10T07:03:31.964Z,7.50
2018-09-10T07:06:01.477Z,7.97
2018-09-10T07:08:30.150Z,7.23
2018-09-10T07:10:58.987Z,7.17
2018-09-10T07:13:27.714Z,6.90
2018-09-10T07:15:56.623Z,6.13
2018-09-10T07:18:25.454Z,5.90
2018-09-10T07:20:54.268Z,5.37
2018-09-10T07:23:23.154Z,5.30
2018-09-10T07:25:52.057Z,6.10
2018-09-10T07:28:20.732Z,6.00
2018-09-10T07:30:49.369Z,5.93
2018-09-10T07:33:18.382Z,5.10
2018-09-10T07:35:47.014Z,4.87
2018-09-10T07:38:15.714Z,4.10
2018-09-10T07:40:44.452Z,4.40
2018-09-10T07:43:19.748Z,4.80
2018-09-10T07:45:48.481Z,4.03
2018-09-10T07:48:17.134Z,4.40
2018-09-10T07:50:46.286Z,3.83
2018-09-10T07:53:15.027Z,3.20
2018-09-10T07:55:43.749Z,3.47
2018-09-10T07:58:12.795Z,3.40
2018-09-10T08:00:41.603Z,3.70
2018-09-10T08:03:10.366Z,3.87
2018-09-10T08:05:39.130Z,3.90
2018-09-10T08:08:07.964Z,4.10
2018-09-10T08:10:36.690Z,3.30
2018-09-10T08:13:05.352Z,3.30
2018-09-10T08:15:34.223Z,2.83
2018-09-10T08:18:02.971Z,3.17
2018-09-10T08:20:31.912Z,3.00
2018-09-10T08:23:00.684Z,2.80
2018-09-10T08:25:29.757Z,2.93
2018-09-10T08:27:58.425Z,2.77
2018-09-10T08:30:27.176Z,2.70
2018-09-10T08:32:56.015Z,3.13
2018-09-10T08:35:24.948Z,2.60
2018-09-10T08:37:54.159Z,2.70
2018-09-10T08:40:22.898Z,2.70
2018-09-10T08:42:51.846Z,2.80
2018-09-10T08:45:20.578Z,2.30
2018-09-10T08:47:49.506Z,3.30
2018-09-10T08:50:18.370Z,2.40
2018-09-10T08:52:47.356Z,2.53
2018-09-10T08:55:16.332Z,2.73
2018-09-10T08:57:45.133Z,2.80
2018-09-10T09:00:14.236Z,2.87
2018-09-10T09:02:43.128Z,2.80
2018-09-10T09:05:12.073Z,2.63
2018-09-10T09:07:40.764Z,2.53
2018-09-10T09:10:09.526Z,2.50
2018-09-10T09:12:38.396Z,2.57
2018-09-10T09:15:07.405Z,3.20
2018-09-10T09:17:36.348Z,2.77
2018-09-10T09:20:05.962Z,2.83
2018-09-10T09:22:34.964Z,3.40
2018-09-10T09:25:04.004Z,2.97
2018-09-10T09:27:32.879Z,3.07
2018-09-10T09:30:01.606Z,3.07
2018-09-10T09:32:30.324Z,2.70
2018-09-10T09:34:59.779Z,3.20
2018-09-10T09:37:33.934Z,3.07
2018-09-10T09:40:07.987Z,2.70
2018-09-10T09:42:41.976Z,2.43
2018-09-10T09:45:16.258Z,3.10
2018-09-10T09:47:44.900Z,3.20
2018-09-10T09:53:55.851Z,3.50
2018-09-10T09:56:24.715Z,2.90
2018-09-10T09:58:53.435Z,2.80
2018-09-10T10:01:28.131Z,2.60
2018-09-10T10:05:00.076Z,2.60
2018-09-10T10:07:28.900Z,2.77
2018-09-10T10:09:57.674Z,3.00
2018-09-10T10:12:26.488Z,2.30
2018-09-10T10:14:55.233Z,2.57
2018-09-10T10:17:23.916Z,2.50
2018-09-10T10:19:53.026Z,2.80
2018-09-10T10:22:21.702Z,2.63
2018-09-10T10:24:50.641Z,3.50
2018-09-10T10:27:19.557Z,2.50
2018-09-10T10:29:48.354Z,2.90
2018-09-10T10:32:17.224Z,2.73
2018-09-10T10:34:46.215Z,3.23
2018-09-10T10:37:14.869Z,2.83
2018-09-10T10:39:43.508Z,2.73
2018-09-10T10:42:12.228Z,2.90
2018-09-10T10:44:40.867Z,2.80
2018-09-10T10:47:09.524Z,2.90
2018-09-10T10:49:38.276Z,2.50
2018-09-10T10:52:07.481Z,3.10
2018-09-10T11:02:17.565Z,2.80
2018-09-10T11:04:46.425Z,2.80
2018-09-10T11:07:15.521Z,2.93
2018-09-10T11:09:44.248Z,2.67
2018-09-10T11:12:13.275Z,2.83
2018-09-10T11:14:42.036Z,2.30
2018-09-10T11:17:10.749Z,2.60
2018-09-10T11:19:39.549Z,2.70
2018-09-10T11:22:08.639Z,2.47
2018-09-10T11:24:37.303Z,3.00
2018-09-10T11:27:06.010Z,2.63
2018-09-10T11:29:34.745Z,2.70
2018-09-10T11:32:03.525Z,2.70
2018-09-10T11:34:32.209Z,2.80
2018-09-10T11:37:00.787Z,2.80
2018-09-10T11:39:29.519Z,2.53
2018-09-10T11:41:58.413Z,2.30
2018-09-10T11:44:27.122Z,2.50
2018-09-10T11:46:55.878Z,2.63
2018-09-10T11:49:24.698Z,2.40
2018-09-10T11:51:53.485Z,2.40
2018-09-10T11:54:22.157Z,3.00
2018-09-10T11:56:50.965Z,2.50
2018-09-10T11:59:19.833Z,2.70
2018-09-10T12:01:48.825Z,2.40
2018-09-10T12:04:17.435Z,2.30
2018-09-10T12:06:46.208Z,2.30
2018-09-10T12:09:14.850Z,2.40
2018-09-10T12:11:43.637Z,2.40
2018-09-10T12:14:12.820Z,2.33
2018-09-10T12:16:41.557Z,2.47
2018-09-10T12:19:10.752Z,2.43
2018-09-10T12:21:39.475Z,2.30
2018-09-10T12:24:08.243Z,2.53
2018-09-10T12:26:37.075Z,2.60
2018-09-10T12:29:06.479Z,2.33
2018-09-10T12:31:35.327Z,2.53
2018-09-10T12:34:04.024Z,2.60
2018-09-10T12:36:32.687Z,2.60
2018-09-10T12:39:01.409Z,3.07
2018-09-10T12:41:30.289Z,3.53
2018-09-10T12:43:58.892Z,3.73
2018-09-10T12:46:27.687Z,2.53
2018-09-10T12:48:56.632Z,2.80
2018-09-10T12:51:25.268Z,2.90
2018-09-10T12:53:54.027Z,2.57
2018-09-10T12:56:22.699Z,2.60
2018-09-10T12:58:51.476Z,2.77
2018-09-10T13:01:20.332Z,3.67
2018-09-10T13:03:49.071Z,3.30
2018-09-10T13:06:17.964Z,2.90
2018-09-10T13:08:46.749Z,2.93
2018-09-10T13:11:15.448Z,2.83
2018-09-10T13:13:44.355Z,2.83
2018-09-10T13:16:13.185Z,2.63
2018-09-10T13:18:42.102Z,2.87
2018-09-10T13:21:10.892Z,2.80
2018-09-10T13:23:40.071Z,3.10
2018-09-10T13:26:09.861Z,2.83
2018-09-10T13:28:38.798Z,2.70
2018-09-10T13:31:07.708Z,2.80
2018-09-10T13:33:36.675Z,2.90
2018-09-10T13:36:05.731Z,3.00
2018-09-10T13:38:34.578Z,2.83
2018-09-10T13:41:03.311Z,3.00
2018-09-10T13:43:32.214Z,2.40
2018-09-10T13:46:01.127Z,2.90
2018-09-10T13:48:29.852Z,2.87
2018-09-10T13:50:58.565Z,2.80
2018-09-10T13:53:27.367Z,2.73
2018-09-10T13:55:56.425Z,3.10
2018-09-10T13:58:25.212Z,3.03
2018-09-10T14:00:54.282Z,3.43
2018-09-10T14:03:23.406Z,3.10
2018-09-10T14:05:52.133Z,3.13
2018-09-10T14:08:20.859Z,3.20
2018-09-10T14:10:49.665Z,3.10
2018-09-10T14:13:18.309Z,2.70
2018-09-10T14:15:47.182Z,2.50
2018-09-10T14:18:16.291Z,2.67
2018-09-10T14:20:45.108Z,2.90
2018-09-10T14:23:13.730Z,2.27
2018-09-10T14:25:42.458Z,2.37
2018-09-10T14:28:11.224Z,2.53
2018-09-10T14:30:39.992Z,2.50
2018-09-10T14:33:08.747Z,2.40
2018-09-10T14:35:37.661Z,2.43
2018-09-10T14:38:06.698Z,2.40
2018-09-10T14:40:35.381Z,2.57
2018-09-10T14:43:04.206Z,2.77
2018-09-10T14:45:32.821Z,2.53
2018-09-10T14:48:01.620Z,2.80
2018-09-10T14:50:30.792Z,2.90
2018-09-10T14:52:59.601Z,2.83
2018-09-10T14:55:28.368Z,2.63
2018-09-10T14:57:57.813Z,3.00
2018-09-10T15:00:27.592Z,2.43
2018-09-10T15:02:57.616Z,2.67
2018-09-10T15:05:26.313Z,3.20
2018-09-10T15:07:55.492Z,4.23
2018-09-10T15:10:24.186Z,3.70
2018-09-10T15:12:53.082Z,2.97
2018-09-10T15:15:21.925Z,3.13
2018-09-10T15:17:51.956Z,3.07
2018-09-10T15:20:20.918Z,2.97
2018-09-10T15:22:50.088Z,2.80
2018-09-10T15:25:18.806Z,3.13
2018-09-10T15:27:47.920Z,2.80
2018-09-10T15:30:16.767Z,3.13
2018-09-10T15:32:45.852Z,3.20
2018-09-10T15:35:14.656Z,3.10
2018-09-10T15:37:44.000Z,3.30
2018-09-10T15:40:12.750Z,2.87
2018-09-10T15:42:41.584Z,3.10
2018-09-10T15:45:10.457Z,2.87
2018-09-10T15:47:39.342Z,3.50
2018-09-10T15:50:08.279Z,3.40
2018-09-10T15:52:37.346Z,3.03
2018-09-10T15:55:06.222Z,2.73
2018-09-10T15:57:35.034Z,3.70
2018-09-10T16:00:04.146Z,3.10
2018-09-10T16:02:33.185Z,3.40
2018-09-10T16:05:01.898Z,3.40
2018-09-10T16:07:30.680Z,3.37
2018-09-10T16:09:59.332Z,3.00
2018-09-10T16:12:27.959Z,3.37
2018-09-10T16:14:57.014Z,3.00
2018-09-10T16:17:26.245Z,3.20
2018-09-10T16:19:55.793Z,3.10
2018-09-10T16:22:24.900Z,3.47
2018-09-10T16:24:53.757Z,3.50
2018-09-10T16:27:23.249Z,3.20
2018-09-10T16:29:52.353Z,3.03
2018-09-10T16:32:21.386Z,3.27
2018-09-10T16:34:50.314Z,4.10
2018-09-10T16:37:19.649Z,5.30
2018-09-10T16:39:48.543Z,6.80
2018-09-10T16:42:17.637Z,7.40
2018-09-10T16:44:46.632Z,9.33
2018-09-10T16:47:15.739Z,7.40
2018-09-10T16:49:44.808Z,11.70
2018-09-10T16:52:13.530Z,10.73
2018-09-10T16:54:42.293Z,9.30
2018-09-10T16:57:11.412Z,8.20
2018-09-10T16:59:40.312Z,11.30
2018-09-10T17:02:09.255Z,11.07
2018-09-10T17:04:38.226Z,12.03
2018-09-10T17:07:07.314Z,24.67
2018-09-10T17:09:36.194Z,26.87
2018-09-10T17:12:05.236Z,26.73
2018-09-10T17:14:36.713Z,18.83
2018-09-10T17:17:06.601Z,12.00
2018-09-10T17:19:35.798Z,8.57
2018-09-10T17:22:04.650Z,5.37
2018-09-10T17:24:33.673Z,5.50
2018-09-10T17:27:02.575Z,5.97
2018-09-10T17:29:31.658Z,6.47
2018-09-10T17:32:00.633Z,6.17
2018-09-10T17:34:29.907Z,7.17
2018-09-10T17:36:58.895Z,7.50
2018-09-10T17:39:27.576Z,7.97
2018-09-10T17:41:56.445Z,8.00
2018-09-10T17:44:25.983Z,9.10
2018-09-10T17:46:55.911Z,10.10
2018-09-10T17:49:24.839Z,10.33
2018-09-10T17:51:53.748Z,9.77
2018-09-10T17:54:23.366Z,9.63
2018-09-10T17:56:52.447Z,9.03
2018-09-10T17:59:21.595Z,10.10
2018-09-10T18:01:50.564Z,8.80
2018-09-10T18:04:19.850Z,8.53
2018-09-10T18:06:48.854Z,9.50
2018-09-10T18:09:17.773Z,8.50
2018-09-10T18:11:46.707Z,9.50
2018-09-10T18:14:15.409Z,8.70
2018-09-10T18:16:44.016Z,9.13
2018-09-10T18:19:12.605Z,7.67
2018-09-10T18:21:41.634Z,8.10
2018-09-10T18:24:10.392Z,8.77
2018-09-10T18:26:39.617Z,8.17
2018-09-10T18:29:08.442Z,8.53
2018-09-10T18:31:38.126Z,9.03
2018-09-10T18:34:07.185Z,8.00
2018-09-10T18:36:36.168Z,9.37
2018-09-10T18:39:09.190Z,8.63
2018-09-10T18:41:38.004Z,9.27
2018-09-10T18:44:07.236Z,8.97
2018-09-10T18:46:35.920Z,9.40
2018-09-10T18:49:04.762Z,10.27
2018-09-10T18:51:33.420Z,9.70
2018-09-10T18:54:02.137Z,9.17
2018-09-10T18:56:30.964Z,9.47
2018-09-10T18:58:59.980Z,9.53
2018-09-10T19:01:28.798Z,9.10
2018-09-10T19:03:57.579Z,10.00
2018-09-10T19:06:26.472Z,10.13
2018-09-10T19:08:55.178Z,11.07
2018-09-10T19:11:23.943Z,10.83
2018-09-10T19:13:52.738Z,10.53
2018-09-10T19:16:21.757Z,10.97
2018-09-10T19:18:50.481Z,10.93
2018-09-10T19:21:20.564Z,10.80
2018-09-10T19:23:49.326Z,10.80
2018-09-10T19:26:18.155Z,10.30
2018-09-10T19:28:46.980Z,9.90
2018-09-10T19:31:15.844Z,10.57
2018-09-10T19:33:44.677Z,9.20
2018-09-10T19:36:13.367Z,10.43
2018-09-10T19:38:42.407Z,10.10
2018-09-10T19:41:11.771Z,10.60
2018-09-10T19:43:40.465Z,10.63
2018-09-10T19:46:09.728Z,10.57
2018-09-10T19:48:39.273Z,10.07
2018-09-10T19:51:08.206Z,8.93
2018-09-10T19:53:37.077Z,9.20
2018-09-10T19:56:06.061Z,9.07
2018-09-10T19:58:35.818Z,8.60
2018-09-10T20:01:05.462Z,7.13
2018-09-10T20:03:34.199Z,8.07
2018-09-10T20:06:04.370Z,7.63
2018-09-10T20:08:33.203Z,7.67
2018-09-10T20:11:02.056Z,7.50
2018-09-10T20:13:31.194Z,7.53
2018-09-10T20:16:00.053Z,6.77
2018-09-10T20:18:28.920Z,7.07
2018-09-10T20:20:57.803Z,6.73
2018-09-10T20:23:26.705Z,7.33
2018-09-10T20:26:58.731Z,7.27
2018-09-10T20:29:27.537Z,7.70
2018-09-10T20:31:56.450Z,7.27
2018-09-10T20:34:25.413Z,7.03
2018-09-10T20:36:54.509Z,7.60
2018-09-10T20:39:23.475Z,7.63
2018-09-10T20:41:52.673Z,8.10
2018-09-10T20:44:21.541Z,7.70
2018-09-10T20:46:50.328Z,8.57
2018-09-10T20:49:19.009Z,8.53
2018-09-10T20:51:47.787Z,8.83
2018-09-10T20:54:16.873Z,8.40
2018-09-10T20:56:45.585Z,9.23
2018-09-10T20:59:14.395Z,8.70
2018-09-10T21:01:43.224Z,9.67
2018-09-10T21:04:11.912Z,9.37
2018-09-10T21:06:41.274Z,11.10
2018-09-10T21:09:10.835Z,10.37
2018-09-10T21:11:40.016Z,10.40
2018-09-10T21:14:09.233Z,11.20
2018-09-10T21:16:38.022Z,10.93
2018-09-10T21:19:07.236Z,11.93
2018-09-10T21:21:36.036Z,11.70
2018-09-10T21:24:04.817Z,12.23
2018-09-10T21:26:34.465Z,12.47
2018-09-10T21:29:03.408Z,12.70
2018-09-10T21:31:32.365Z,12.17
2018-09-10T21:34:01.288Z,12.43
2018-09-10T21:36:29.969Z,12.70
2018-09-10T21:38:58.740Z,12.80
2018-09-10T21:41:27.666Z,12.73
2018-09-10T21:43:56.852Z,12.33
2018-09-10T21:46:25.951Z,12.80
2018-09-10T21:48:54.770Z,12.23
2018-09-10T21:51:23.532Z,12.37
2018-09-10T21:53:52.225Z,12.70
2018-09-10T21:56:21.025Z,11.90
2018-09-10T21:58:49.923Z,12.37
2018-09-10T22:01:18.883Z,13.33
2018-09-10T22:03:47.820Z,13.07
2018-09-10T22:06:16.537Z,12.03
2018-09-10T22:08:45.439Z,12.53
2018-09-10T22:11:14.420Z,12.83
2018-09-10T22:13:43.906Z,12.90
2018-09-10T22:16:13.463Z,12.60
2018-09-10T22:18:42.445Z,12.70
2018-09-10T22:21:11.238Z,12.37
2018-09-10T22:23:40.059Z,12.67
2018-09-10T22:26:08.673Z,12.93
2018-09-10T22:28:37.440Z,12.77
2018-09-10T22:31:06.377Z,12.40
2018-09-10T22:33:35.070Z,12.90
2018-09-10T22:36:03.801Z,12.83
2018-09-10T22:38:32.533Z,12.43
2018-09-10T22:41:01.330Z,12.00
2018-09-10T22:43:30.176Z,12.53
2018-09-10T22:45:58.846Z,12.63
2018-09-10T22:48:27.593Z,12.77
2018-09-10T22:50:56.423Z,13.23
2018-09-10T22:53:25.232Z,12.27
2018-09-10T22:55:53.940Z,12.80
2018-09-10T22:58:22.610Z,12.63
2018-09-10T23:00:51.488Z,13.03
2018-09-10T23:03:20.423Z,12.30
2018-09-10T23:05:49.308Z,12.40
2018-09-10T23:08:18.266Z,12.53
2018-09-10T23:10:47.594Z,11.93
2018-09-10T23:13:16.686Z,12.07
2018-09-10T23:15:45.864Z,12.10
2018-09-10T23:18:14.615Z,12.10
2018-09-10T23:20:43.309Z,12.70
2018-09-10T23:23:12.144Z,11.87
2018-09-10T23:25:41.130Z,12.47
2018-09-10T23:28:09.854Z,12.30
2018-09-10T23:30:38.561Z,12.07
2018-09-10T23:33:07.775Z,12.87
2018-09-10T23:35:36.499Z,12.70
2018-09-10T23:38:05.222Z,12.03
2018-09-10T23:40:33.965Z,12.10
2018-09-10T23:43:02.659Z,11.90
2018-09-10T23:45:31.494Z,12.80
2018-09-10T23:48:00.340Z,12.27
2018-09-10T23:50:29.060Z,12.33
2018-09-10T23:52:57.818Z,12.10
2018-09-10T23:55:26.559Z,11.33
2018-09-10T23:57:55.222Z,12.43
